Time;durP1;ratioP1;P1;durP2;ratioP2;P2;SDS_P1;SDS_P2;PMS_P1;PMS_P2;Temp;Humidity;BMP_temperature;BMP_pressure;BME280_temperature;BME280_humidity;BME280_pressure;Samples;Min_cycle;Max_cycle;Signal;HPM_P1;HPM_P2
2022/03/01 00:01:21;;;;;;;47.57;40.80;;;;;;;-2.37;82.51;100353.00;5008235;28;20041;-56
2022/03/01 00:03:46;;;;;;;35.37;31.97;;;;;;;-2.45;83.58;100351.69;5009271;28;20054;-57
2022/03/01 00:06:12;;;;;;;40.77;36.37;;;;;;;-2.54;84.49;100353.63;5010601;28;20044;-56
2022/03/01 00:08:37;;;;;;;39.17;34.47;;;;;;;-2.70;86.25;100346.81;5009119;28;20077;-56
2022/03/01 00:11:03;;;;;;;69.00;50.27;;;;;;;-2.70;86.87;100354.34;5005546;28;20041;-58
2022/03/01 00:13:28;;;;;;;63.27;46.37;;;;;;;-2.71;87.17;100344.22;5005959;28;20480;-56
2022/03/01 00:15:54;;;;;;;32.87;29.53;;;;;;;-2.57;86.03;100338.38;5004372;28;20694;-55
2022/03/01 00:18:19;;;;;;;33.43;30.37;;;;;;;-2.63;86.10;100338.88;5009059;28;20571;-57
2022/03/01 00:20:44;;;;;;;24.73;22.43;;;;;;;-2.60;85.75;100338.22;5008772;28;20704;-57
2022/03/01 00:23:10;;;;;;;24.50;22.47;;;;;;;-2.48;85.55;100333.94;5007896;28;20049;-56
2022/03/01 00:25:36;;;;;;;21.03;19.23;;;;;;;-2.47;84.86;100338.19;5009429;28;20079;-56
2022/03/01 00:28:02;;;;;;;23.10;21.10;;;;;;;-2.48;84.36;100334.78;5004607;28;20124;-57
2022/03/01 00:30:27;;;;;;;24.97;22.70;;;;;;;-2.44;84.55;100329.19;5009769;28;20030;-57
2022/03/01 00:32:53;;;;;;;13.07;11.73;;;;;;;-2.50;85.13;100312.88;5006117;28;20054;-56
2022/03/01 00:35:18;;;;;;;13.57;11.83;;;;;;;-2.37;84.57;100318.72;5005992;28;20050;-55
2022/03/01 00:37:43;;;;;;;12.90;6.93;;;;;;;-2.37;84.38;100313.69;5004978;28;20073;-56
2022/03/01 00:40:09;;;;;;;10.63;9.63;;;;;;;-2.32;83.84;100321.50;5006677;28;20046;-56
2022/03/01 00:42:35;;;;;;;11.57;10.07;;;;;;;-2.28;82.94;100312.50;5006103;28;20036;-57
2022/03/01 00:45:00;;;;;;;13.10;8.17;;;;;;;-2.39;83.76;100306.84;5008561;28;20485;-58
2022/03/01 00:47:26;;;;;;;14.97;13.57;;;;;;;-2.49;84.14;100307.06;5006992;28;20046;-57
2022/03/01 00:49:51;;;;;;;12.47;7.93;;;;;;;-2.51;84.90;100304.50;5006038;28;20043;-54
2022/03/01 00:52:17;;;;;;;19.43;17.63;;;;;;;-2.52;84.68;100307.78;5004192;28;20038;-55
2022/03/01 00:54:42;;;;;;;23.60;21.43;;;;;;;-2.43;84.72;100307.44;5009313;28;20045;-57
2022/03/01 00:57:08;;;;;;;32.80;29.50;;;;;;;-2.50;84.84;100306.22;5007773;28;20061;-57
2022/03/01 00:59:33;;;;;;;31.47;27.70;;;;;;;-2.47;84.75;100308.91;5013178;28;20572;-57
2022/03/01 01:01:59;;;;;;;31.60;28.57;;;;;;;-2.52;85.05;100300.25;5010940;28;20069;-56
2022/03/01 01:04:24;;;;;;;66.90;48.60;;;;;;;-2.47;84.35;100280.44;5013019;28;20188;-57
2022/03/01 01:06:49;;;;;;;66.30;48.17;;;;;;;-2.45;84.38;100297.31;5012728;28;20220;-57
2022/03/01 01:09:15;;;;;;;65.50;46.53;;;;;;;-2.49;84.75;100295.41;5014341;28;20068;-57
2022/03/01 01:11:42;;;;;;;68.40;49.17;;;;;;;-2.48;83.86;100293.75;5010509;28;20038;-58
2022/03/01 01:14:07;;;;;;;70.47;48.17;;;;;;;-2.55;84.01;100286.66;5008456;28;20076;-58
2022/03/01 01:16:33;;;;;;;62.43;45.77;;;;;;;-2.54;84.21;100291.75;5012854;28;20077;-57
2022/03/01 01:18:59;;;;;;;61.33;44.33;;;;;;;-2.54;84.39;100284.22;5010614;28;20498;-57
2022/03/01 01:22:39;;;;;;;51.20;40.33;;;;;;;-2.57;84.45;100278.16;5008637;28;20361;-58
2022/03/01 01:24:10;;;;;;;61.78;43.17;;;;;;;-2.55;84.72;100294.19;5012738;28;20384;-58
2022/03/01 01:26:35;;;;;;;42.53;37.00;;;;;;;-2.49;84.54;100294.53;5009108;28;20046;-57
2022/03/01 01:29:01;;;;;;;56.73;43.13;;;;;;;-2.48;84.76;100298.78;5008701;28;20041;-57
2022/03/01 01:31:26;;;;;;;55.77;41.30;;;;;;;-2.57;85.11;100293.22;5012877;28;20045;-55
2022/03/01 01:33:51;;;;;;;50.53;41.10;;;;;;;-2.57;85.58;100289.06;5009058;28;20034;-56
2022/03/01 01:36:17;;;;;;;46.33;37.87;;;;;;;-2.61;85.66;100294.66;5009881;28;20081;-57
2022/03/01 01:38:42;;;;;;;50.00;39.60;;;;;;;-2.59;85.70;100297.28;5005390;28;20048;-57
2022/03/01 01:41:07;;;;;;;52.10;42.47;;;;;;;-2.66;86.40;100301.06;5010775;28;20049;-57
2022/03/01 01:43:33;;;;;;;49.17;38.87;;;;;;;-2.73;86.93;100300.59;5010465;28;20094;-58
2022/03/01 01:45:58;;;;;;;50.53;40.13;;;;;;;-2.77;87.26;100295.41;5010501;28;20476;-56
2022/03/01 01:48:24;;;;;;;57.73;43.17;;;;;;;-2.96;88.79;100294.19;5008223;28;20045;-58
2022/03/01 01:50:49;;;;;;;55.60;42.97;;;;;;;-3.00;90.32;100289.75;5006375;28;20087;-57
2022/03/01 01:53:15;;;;;;;54.10;44.30;;;;;;;-3.07;91.51;100286.03;5004921;28;20046;-56
2022/03/01 01:55:40;;;;;;;52.73;41.57;;;;;;;-3.18;92.40;100279.47;5008612;28;20037;-57
2022/03/01 01:58:05;;;;;;;56.20;42.67;;;;;;;-3.18;92.42;100289.50;5007174;28;20042;-57
2022/03/01 02:00:31;;;;;;;60.53;44.60;;;;;;;-3.15;92.24;100279.69;5013065;28;20431;-57
2022/03/01 02:02:58;;;;;;;66.00;45.77;;;;;;;-3.17;93.11;100281.22;5007070;28;20129;-56
2022/03/01 02:05:24;;;;;;;78.63;51.00;;;;;;;-3.11;93.25;100273.19;5007867;28;20041;-57
2022/03/01 02:07:49;;;;;;;79.33;49.70;;;;;;;-3.04;92.53;100261.13;5009856;28;20042;-56
2022/03/01 02:10:16;;;;;;;75.10;47.37;;;;;;;-2.87;91.59;100259.63;5009002;28;20030;-56
2022/03/01 02:12:42;;;;;;;85.90;51.87;;;;;;;-2.90;91.35;100256.94;5013146;28;20072;-56
2022/03/01 02:15:08;;;;;;;76.13;48.63;;;;;;;-2.76;90.35;100249.44;5011096;28;20045;-56
2022/03/01 02:17:34;;;;;;;80.53;50.23;;;;;;;-2.76;89.04;100246.94;5007943;28;20054;-55
2022/03/01 02:19:59;;;;;;;82.97;49.97;;;;;;;-2.69;89.21;100253.19;5008539;28;20038;-57
2022/03/01 02:22:33;;;;;;;83.93;51.17;;;;;;;-2.74;89.90;100259.59;5007997;28;20052;-55
2022/03/01 02:24:58;;;;;;;91.70;55.13;;;;;;;-2.82;88.82;100244.06;5011266;28;20663;-57
2022/03/01 02:27:23;;;;;;;83.63;53.47;;;;;;;-2.71;88.93;100253.88;5011908;28;20049;-57
2022/03/01 02:29:49;;;;;;;89.87;52.73;;;;;;;-2.73;88.75;100256.31;5008236;28;20052;-55
2022/03/01 02:32:14;;;;;;;95.27;53.77;;;;;;;-2.79;89.24;100261.81;5010664;28;20046;-55
2022/03/01 02:34:39;;;;;;;85.03;50.83;;;;;;;-2.81;89.08;100263.38;5008898;28;20153;-57
2022/03/01 02:37:05;;;;;;;89.17;51.40;;;;;;;-2.78;89.62;100257.66;5011193;28;20515;-55
2022/03/01 02:39:31;;;;;;;91.33;53.90;;;;;;;-2.72;89.12;100252.16;5008621;28;20052;-56
2022/03/01 02:41:56;;;;;;;79.00;49.93;;;;;;;-2.79;90.11;100263.44;5010019;28;20038;-56
2022/03/01 02:44:21;;;;;;;83.70;52.27;;;;;;;-2.73;89.83;100262.97;5005995;28;20042;-56
2022/03/01 02:46:47;;;;;;;58.50;42.93;;;;;;;-2.80;90.60;100257.56;5008786;28;20153;-54
2022/03/01 02:49:12;;;;;;;51.00;40.03;;;;;;;-2.87;91.28;100258.00;5009600;28;20141;-53
2022/03/01 02:51:38;;;;;;;62.43;45.67;;;;;;;-2.99;92.87;100257.25;5011930;28;20807;-54
2022/03/01 02:54:05;;;;;;;78.20;51.30;;;;;;;-3.06;93.53;100254.28;5011056;28;20504;-54
2022/03/01 02:56:30;;;;;;;77.60;49.50;;;;;;;-3.17;94.48;100253.63;5006777;28;20049;-52
2022/03/01 02:58:56;;;;;;;72.97;49.03;;;;;;;-3.26;95.03;100256.44;5008893;28;20034;-55
2022/03/01 03:01:22;;;;;;;71.70;47.07;;;;;;;-3.36;96.11;100266.69;4991879;28;20042;-56
2022/03/01 03:03:49;;;;;;;76.30;51.00;;;;;;;-3.47;97.06;100272.66;5011696;28;20043;-56
2022/03/01 03:06:14;;;;;;;66.00;47.23;;;;;;;-3.55;97.80;100275.47;5005649;28;20073;-54
2022/03/01 03:08:40;;;;;;;59.60;43.27;;;;;;;-3.71;98.53;100259.47;5008713;28;20464;-54
2022/03/01 03:11:05;;;;;;;54.60;42.93;;;;;;;-3.73;99.56;100271.03;5005480;28;20049;-53
2022/03/01 03:13:31;;;;;;;52.03;40.93;;;;;;;-3.78;100.00;100284.03;5007206;28;20156;-56
2022/03/01 03:15:56;;;;;;;48.97;38.93;;;;;;;-3.82;100.00;100280.44;5007331;28;20057;-53
2022/03/01 03:18:22;;;;;;;42.37;36.87;;;;;;;-3.91;100.00;100269.00;5007397;28;20057;-54
2022/03/01 03:20:47;;;;;;;38.80;34.80;;;;;;;-4.00;100.00;100271.78;5011601;28;20072;-53
2022/03/01 03:23:13;;;;;;;41.30;36.60;;;;;;;-4.00;100.00;100268.41;5009135;28;20148;-54
2022/03/01 03:25:38;;;;;;;42.27;34.17;;;;;;;-3.89;100.00;100267.44;5013650;28;20069;-56
2022/03/01 03:28:04;;;;;;;45.50;36.77;;;;;;;-3.96;100.00;100267.84;5009581;28;20045;-56
2022/03/01 03:30:29;;;;;;;41.47;34.73;;;;;;;-4.04;100.00;100263.97;5010543;28;20083;-56
2022/03/01 03:32:55;;;;;;;50.87;40.20;;;;;;;-4.02;100.00;100273.31;5010812;28;20041;-55
2022/03/01 03:35:22;;;;;;;51.80;38.90;;;;;;;-4.07;100.00;100266.28;5013064;28;20046;-57
2022/03/01 03:37:48;;;;;;;46.90;35.80;;;;;;;-4.17;100.00;100263.19;5010750;28;20129;-53
2022/03/01 03:40:13;;;;;;;42.80;36.87;;;;;;;-4.20;100.00;100260.47;5011306;28;20153;-55
2022/03/01 03:42:39;;;;;;;48.60;38.00;;;;;;;-3.97;100.00;100263.59;5010232;28;20043;-56
2022/03/01 03:45:06;;;;;;;54.33;40.40;;;;;;;-3.98;100.00;100265.22;5012230;28;20377;-58
2022/03/01 03:47:32;;;;;;;40.27;35.10;;;;;;;-3.95;100.00;100272.94;5011109;28;20048;-56
2022/03/01 03:49:57;;;;;;;41.63;36.23;;;;;;;-3.91;100.00;100262.34;5011986;28;20542;-57
2022/03/01 03:52:23;;;;;;;44.23;37.83;;;;;;;-3.93;100.00;100266.38;5008268;28;20128;-57
2022/03/01 03:54:50;;;;;;;46.33;35.67;;;;;;;-3.94;100.00;100253.75;5009488;28;20030;-55
2022/03/01 03:57:15;;;;;;;38.13;34.00;;;;;;;-3.94;100.00;100262.13;5009561;28;20042;-56
2022/03/01 03:59:41;;;;;;;47.10;38.90;;;;;;;-3.95;100.00;100257.94;5010895;28;20089;-55
2022/03/01 04:02:06;;;;;;;8.23;5.70;;;;;;;-3.99;100.00;100251.00;5008457;28;20054;-56
2022/03/01 04:04:33;;;;;;;8.60;5.93;;;;;;;-3.88;100.00;100252.53;5009532;28;20574;-56
2022/03/01 04:06:58;;;;;;;15.57;7.63;;;;;;;-4.06;100.00;100242.97;5007636;28;20055;-56
2022/03/01 04:09:24;;;;;;;10.87;6.47;;;;;;;-4.08;100.00;100260.41;5008557;28;20410;-55
2022/03/01 04:11:49;;;;;;;9.90;7.97;;;;;;;-4.19;100.00;100249.69;5008228;28;20506;-54
2022/03/01 04:14:17;;;;;;;13.10;9.10;;;;;;;-3.99;100.00;100247.59;5013061;28;20034;-57
2022/03/01 04:16:43;;;;;;;10.27;5.47;;;;;;;-4.04;100.00;100242.31;5005703;28;20033;-57
2022/03/01 04:19:09;;;;;;;14.23;6.70;;;;;;;-4.07;100.00;100243.75;5009189;28;20512;-59
2022/03/01 04:21:35;;;;;;;11.70;8.83;;;;;;;-4.20;100.00;100242.09;5007921;28;20055;-56
2022/03/01 04:24:01;;;;;;;9.57;6.03;;;;;;;-4.33;100.00;100232.06;5008577;28;20054;-53
2022/03/01 04:26:26;;;;;;;12.07;6.93;;;;;;;-4.42;100.00;100228.94;5008716;28;20041;-53
2022/03/01 04:28:52;;;;;;;13.27;6.20;;;;;;;-4.42;100.00;100222.31;5007458;28;20397;-57
2022/03/01 04:31:17;;;;;;;13.00;6.97;;;;;;;-4.47;100.00;100223.63;5009153;28;20160;-57
2022/03/01 04:33:42;;;;;;;9.27;6.13;;;;;;;-4.36;100.00;100221.81;5007410;28;20086;-56
2022/03/01 04:36:08;;;;;;;11.80;5.63;;;;;;;-4.30;100.00;100222.22;5014577;28;20049;-57
2022/03/01 04:38:35;;;;;;;11.67;10.23;;;;;;;-4.24;100.00;100227.63;5016693;28;20042;-55
2022/03/01 04:41:01;;;;;;;13.87;7.70;;;;;;;-4.33;100.00;100214.53;5007921;28;20400;-56
2022/03/01 04:43:26;;;;;;;15.67;13.23;;;;;;;-4.39;100.00;100227.50;5008765;28;20038;-54
2022/03/01 04:45:52;;;;;;;16.47;14.80;;;;;;;-4.28;100.00;100230.69;5013733;28;20045;-55
2022/03/01 04:48:17;;;;;;;18.40;16.73;;;;;;;-4.24;100.00;100225.09;5008764;28;20038;-55
2022/03/01 04:50:43;;;;;;;12.27;10.80;;;;;;;-4.36;100.00;100229.31;5011695;28;20046;-56
2022/03/01 04:53:08;;;;;;;16.50;11.50;;;;;;;-4.29;100.00;100228.97;5007323;28;20069;-58
2022/03/01 04:55:34;;;;;;;14.93;13.43;;;;;;;-4.42;100.00;100221.44;5013270;28;20063;-56
2022/03/01 04:58:00;;;;;;;16.00;11.43;;;;;;;-4.37;100.00;100230.13;5003341;28;20044;-58
2022/03/01 05:00:26;;;;;;;11.77;9.93;;;;;;;-4.44;100.00;100228.84;5009153;28;20030;-56
2022/03/01 05:02:52;;;;;;;15.27;8.50;;;;;;;-4.29;100.00;100226.47;5010506;28;20050;-55
2022/03/01 05:05:17;;;;;;;10.43;6.27;;;;;;;-4.22;100.00;100231.09;5011627;28;20042;-56
2022/03/01 05:07:46;;;;;;;12.87;10.20;;;;;;;-4.27;100.00;100233.31;5008122;28;20037;-53
2022/03/01 05:10:13;;;;;;;13.37;12.00;;;;;;;-4.45;100.00;100223.72;5010652;28;20033;-53
2022/03/01 05:12:51;;;;;;;22.47;15.53;;;;;;;-4.57;100.00;100233.78;5006626;28;20058;-55
2022/03/01 05:15:17;;;;;;;26.97;15.47;;;;;;;-4.66;100.00;100233.19;4993032;28;20418;-56
2022/03/01 05:17:43;;;;;;;25.07;20.70;;;;;;;-4.75;100.00;100232.56;5007725;28;20048;-53
2022/03/01 05:20:10;;;;;;;25.03;21.93;;;;;;;-4.75;100.00;100238.44;5005023;28;20034;-56
2022/03/01 05:22:37;;;;;;;27.67;22.67;;;;;;;-4.87;100.00;100245.13;5005293;28;20080;-57
2022/03/01 05:25:04;;;;;;;26.43;14.47;;;;;;;-4.93;100.00;100244.72;5009843;28;20033;-57
2022/03/01 05:27:30;;;;;;;17.70;11.07;;;;;;;-4.93;100.00;100246.38;5008439;28;20050;-56
2022/03/01 05:29:56;;;;;;;21.40;11.30;;;;;;;-5.00;100.00;100250.06;5004368;28;20073;-56
2022/03/01 05:32:21;;;;;;;24.20;16.23;;;;;;;-5.02;100.00;100246.59;5004214;28;20046;-56
2022/03/01 05:34:47;;;;;;;21.40;12.00;;;;;;;-5.04;100.00;100248.13;5009323;28;20034;-55
2022/03/01 05:37:12;;;;;;;22.00;12.80;;;;;;;-5.01;100.00;100248.34;5005475;28;20628;-57
2022/03/01 05:39:38;;;;;;;17.90;8.73;;;;;;;-5.05;100.00;100246.41;5009152;28;20041;-58
2022/03/01 05:42:03;;;;;;;22.47;20.07;;;;;;;-5.10;100.00;100246.09;5006861;28;20046;-57
2022/03/01 05:44:29;;;;;;;17.27;15.47;;;;;;;-5.10;100.00;100252.72;5005824;28;20129;-56
2022/03/01 05:46:54;;;;;;;13.87;10.83;;;;;;;-5.11;100.00;100248.47;5009566;28;20421;-56
2022/03/01 05:49:20;;;;;;;14.33;9.83;;;;;;;-5.11;100.00;100256.84;5014765;28;20040;-55
2022/03/01 05:51:45;;;;;;;19.90;13.43;;;;;;;-5.07;100.00;100256.28;5011617;28;20068;-57
2022/03/01 05:54:11;;;;;;;19.67;9.73;;;;;;;-5.08;100.00;100249.56;5012462;28;20121;-54
2022/03/01 05:56:36;;;;;;;18.93;9.67;;;;;;;-5.07;100.00;100250.41;5006579;28;20739;-56
2022/03/01 05:59:02;;;;;;;19.40;9.03;;;;;;;-5.00;100.00;100249.19;5005694;28;20079;-54
2022/03/01 06:01:27;;;;;;;18.63;13.40;;;;;;;-5.00;100.00;100256.69;5006877;28;20456;-55
2022/03/01 06:03:53;;;;;;;14.73;8.30;;;;;;;-4.94;100.00;100263.00;5009307;28;20038;-55
2022/03/01 06:06:19;;;;;;;23.90;21.60;;;;;;;-4.87;100.00;100272.63;5005333;28;20045;-54
2022/03/01 06:08:44;;;;;;;31.97;28.57;;;;;;;-4.68;100.00;100272.25;5005877;28;20040;-55
2022/03/01 06:11:10;;;;;;;23.53;21.33;;;;;;;-4.47;100.00;100273.69;5007292;28;20070;-56
2022/03/01 06:13:37;;;;;;;36.53;30.83;;;;;;;-4.32;100.00;100269.69;5009349;28;20097;-57
2022/03/01 06:16:04;;;;;;;19.47;17.50;;;;;;;-4.25;100.00;100271.84;5007749;28;20038;-57
2022/03/01 06:18:29;;;;;;;256.03;78.17;;;;;;;-4.16;100.00;100269.06;5010517;28;20165;-57
2022/03/01 06:20:56;;;;;;;248.10;75.07;;;;;;;-4.03;100.00;100266.56;5005967;28;20917;-56
2022/03/01 06:23:22;;;;;;;129.27;58.93;;;;;;;-3.97;100.00;100256.94;5006003;28;20880;-56
2022/03/01 06:25:48;;;;;;;186.17;68.53;;;;;;;-3.79;100.00;100273.16;5006194;28;20053;-56
2022/03/01 06:28:13;;;;;;;159.73;65.23;;;;;;;-3.67;100.00;100269.69;5011353;28;20107;-58
2022/03/01 06:30:39;;;;;;;135.03;68.13;;;;;;;-3.51;100.00;100260.72;5007851;28;20077;-55
2022/03/01 06:33:04;;;;;;;103.03;57.03;;;;;;;-3.20;100.00;100265.97;5004453;28;20734;-57
2022/03/01 06:35:30;;;;;;;107.63;66.20;;;;;;;-3.17;100.00;100265.28;5006608;28;20525;-56
2022/03/01 06:37:56;;;;;;;96.03;58.67;;;;;;;-3.12;100.00;100267.31;5006577;28;20046;-57
2022/03/01 06:40:21;;;;;;;83.67;53.90;;;;;;;-3.05;100.00;100271.91;5005738;28;20858;-58
2022/03/01 06:42:48;;;;;;;62.90;48.30;;;;;;;-2.90;100.00;100269.47;5005864;28;20080;-56
2022/03/01 06:45:13;;;;;;;76.63;53.90;;;;;;;-2.83;100.00;100274.97;5011712;28;20034;-58
2022/03/01 06:47:39;;;;;;;65.30;50.70;;;;;;;-2.66;100.00;100268.44;5005723;28;20038;-58
2022/03/01 06:50:05;;;;;;;69.00;51.20;;;;;;;-2.52;100.00;100271.75;5012842;28;20615;-55
2022/03/01 06:52:34;;;;;;;67.33;52.33;;;;;;;-2.39;100.00;100272.56;5007349;28;20037;-56
2022/03/01 06:55:01;;;;;;;46.23;40.47;;;;;;;-2.26;100.00;100265.75;5005121;28;20096;-54
2022/03/01 06:57:27;;;;;;;41.83;37.70;;;;;;;-2.14;97.95;100266.44;5004961;28;20056;-57
2022/03/01 06:59:53;;;;;;;49.67;44.47;;;;;;;-2.10;96.31;100265.84;5003608;28;20037;-58
2022/03/01 07:02:20;;;;;;;29.27;26.73;;;;;;;-1.90;95.81;100258.66;5006740;28;20559;-60
2022/03/01 07:04:45;;;;;;;19.73;17.93;;;;;;;-1.88;95.55;100254.59;4989588;28;20058;-56
2022/03/01 07:07:10;;;;;;;12.53;8.47;;;;;;;-1.65;94.06;100252.44;5004902;28;20376;-56
2022/03/01 07:09:36;;;;;;;11.80;7.43;;;;;;;-1.64;93.39;100257.56;5005324;28;20037;-57
2022/03/01 07:12:02;;;;;;;11.97;6.57;;;;;;;-1.39;92.25;100254.75;5006475;28;20053;-57
2022/03/01 07:14:27;;;;;;;11.00;6.63;;;;;;;-1.56;91.48;100248.81;5012331;28;20070;-57
2022/03/01 07:16:53;;;;;;;11.67;6.70;;;;;;;-1.48;92.45;100261.78;5007096;28;20138;-50
2022/03/01 07:19:18;;;;;;;9.93;5.60;;;;;;;-1.32;92.11;100261.88;5012270;28;20088;-51
2022/03/01 07:21:43;;;;;;;10.50;7.23;;;;;;;-1.22;91.46;100269.09;5006781;28;20041;-56
2022/03/01 07:24:09;;;;;;;13.03;5.80;;;;;;;-1.08;90.87;100258.13;5008455;28;20038;-56
2022/03/01 07:26:34;;;;;;;12.97;6.37;;;;;;;-0.95;89.97;100259.66;5006994;28;20064;-55
2022/03/01 07:29:00;;;;;;;11.27;6.90;;;;;;;-0.83;89.95;100264.44;5006662;28;20038;-56
2022/03/01 07:31:25;;;;;;;12.77;6.47;;;;;;;-0.72;89.33;100263.38;5013911;28;20034;-56
2022/03/01 07:33:51;;;;;;;11.77;7.27;;;;;;;-0.55;88.73;100263.41;5006026;28;20107;-58
2022/03/01 07:36:16;;;;;;;13.83;6.90;;;;;;;-0.46;87.35;100261.38;5010355;28;20030;-57
2022/03/01 07:38:42;;;;;;;10.63;6.83;;;;;;;-0.30;86.48;100260.50;5005806;28;20451;-56
2022/03/01 07:41:07;;;;;;;11.00;6.93;;;;;;;-0.18;83.78;100262.78;5008997;28;20142;-54
2022/03/01 07:43:33;;;;;;;18.60;7.57;;;;;;;-0.05;83.56;100250.84;5004382;28;20037;-57
2022/03/01 07:45:58;;;;;;;8.93;5.83;;;;;;;0.12;82.01;100255.84;5009472;28;20038;-58
2022/03/01 07:48:23;;;;;;;10.97;7.43;;;;;;;0.31;79.50;100253.38;5006775;28;20042;-58
2022/03/01 07:50:49;;;;;;;12.40;6.33;;;;;;;0.54;77.75;100246.91;5004168;28;20034;-57
2022/03/01 07:53:16;;;;;;;13.57;6.07;;;;;;;0.63;75.92;100249.88;5005086;28;20117;-57
2022/03/01 07:55:42;;;;;;;11.10;6.83;;;;;;;0.76;74.83;100249.63;5006017;28;20064;-57
2022/03/01 07:58:07;;;;;;;13.57;7.20;;;;;;;0.82;74.63;100249.91;5007604;28;20040;-57
2022/03/01 08:00:33;;;;;;;12.23;7.20;;;;;;;1.01;71.66;100249.09;5005329;28;20740;-56
2022/03/01 08:02:59;;;;;;;13.03;6.23;;;;;;;1.13;70.53;100250.50;5007256;28;20046;-57
2022/03/01 08:05:25;;;;;;;11.17;6.57;;;;;;;1.25;69.38;100242.59;5010019;28;20040;-55
2022/03/01 08:07:51;;;;;;;12.50;7.13;;;;;;;1.15;68.76;100237.91;5006098;28;20030;-54
2022/03/01 08:10:17;;;;;;;12.73;7.40;;;;;;;1.48;68.37;100244.44;5004219;28;20161;-55
2022/03/01 08:12:42;;;;;;;9.63;6.93;;;;;;;1.43;66.46;100247.56;5001702;28;20462;-52
2022/03/01 08:15:09;;;;;;;11.37;6.73;;;;;;;1.49;66.26;100243.63;5005471;28;20053;-55
2022/03/01 08:17:34;;;;;;;12.63;7.70;;;;;;;1.55;66.13;100240.50;5008396;28;20896;-55
2022/03/01 08:20:00;;;;;;;13.37;7.50;;;;;;;1.61;65.80;100240.78;5006392;28;20076;-55
2022/03/01 08:22:26;;;;;;;13.10;7.37;;;;;;;1.66;64.09;100250.25;5005326;28;20060;-57
2022/03/01 08:24:51;;;;;;;10.40;6.17;;;;;;;1.63;64.02;100242.56;5005134;28;20046;-57
2022/03/01 08:27:17;;;;;;;10.40;7.13;;;;;;;1.74;63.65;100232.91;5006657;28;20052;-55
2022/03/01 08:29:42;;;;;;;10.07;6.90;;;;;;;1.77;63.42;100231.38;5007708;28;20420;-58
2022/03/01 08:32:08;;;;;;;12.00;6.47;;;;;;;1.76;62.66;100229.63;5004707;28;20050;-57
2022/03/01 08:34:33;;;;;;;9.67;6.70;;;;;;;1.81;61.83;100233.22;5006397;28;20141;-58
2022/03/01 08:36:59;;;;;;;11.80;6.20;;;;;;;2.01;61.12;100228.97;5012390;28;20033;-57
2022/03/01 08:39:24;;;;;;;8.30;5.13;;;;;;;2.00;59.66;100227.25;5008207;28;20056;-57
2022/03/01 08:41:53;;;;;;;9.93;5.63;;;;;;;2.00;59.48;100226.38;5010440;28;20042;-55
2022/03/01 08:44:19;;;;;;;8.53;5.40;;;;;;;2.15;59.51;100224.47;4994417;28;20487;-58
2022/03/01 08:46:44;;;;;;;12.63;5.83;;;;;;;1.78;59.64;100220.44;5005567;28;20060;-56
2022/03/01 08:49:10;;;;;;;8.47;5.93;;;;;;;1.82;59.30;100217.22;5006464;28;20140;-56
2022/03/01 08:51:36;;;;;;;9.63;6.63;;;;;;;2.08;59.04;100212.41;5001439;28;20069;-57
2022/03/01 08:54:02;;;;;;;9.17;4.90;;;;;;;2.14;58.21;100212.63;5001453;28;20030;-56
2022/03/01 08:56:28;;;;;;;7.33;5.10;;;;;;;2.36;57.53;100212.66;5002577;28;20048;-56
2022/03/01 08:58:55;;;;;;;8.53;5.30;;;;;;;2.35;57.42;100202.47;5007221;28;20049;-55
2022/03/01 09:01:21;;;;;;;8.73;4.83;;;;;;;2.45;56.77;100205.44;5005051;28;20072;-57
2022/03/01 09:03:46;;;;;;;7.47;5.27;;;;;;;2.45;56.86;100205.44;5009279;28;20045;-55
2022/03/01 09:06:12;;;;;;;8.33;4.83;;;;;;;2.52;57.19;100207.38;5007129;28;20050;-55
2022/03/01 09:08:40;;;;;;;10.43;5.40;;;;;;;2.48;57.03;100192.03;5007415;28;20053;-56
2022/03/01 09:11:06;;;;;;;8.93;5.73;;;;;;;2.51;56.29;100190.47;5005496;28;20534;-57
2022/03/01 09:13:32;;;;;;;6.97;5.03;;;;;;;2.65;56.06;100186.78;5005937;28;20450;-55
2022/03/01 09:15:57;;;;;;;9.87;5.60;;;;;;;2.68;55.93;100186.91;5005831;28;20038;-55
2022/03/01 09:18:23;;;;;;;7.30;5.23;;;;;;;2.77;55.87;100183.84;5008874;28;20042;-55
2022/03/01 09:20:49;;;;;;;10.43;5.33;;;;;;;2.72;56.43;100176.06;5010599;28;20045;-56
2022/03/01 09:23:15;;;;;;;7.33;5.70;;;;;;;2.72;56.76;100165.09;5009201;28;20053;-55
2022/03/01 09:25:40;;;;;;;13.17;5.80;;;;;;;2.92;56.18;100166.69;5011088;28;20046;-56
2022/03/01 09:28:06;;;;;;;11.57;5.23;;;;;;;3.16;55.35;100154.03;5008724;28;20152;-56
2022/03/01 09:30:32;;;;;;;7.13;4.60;;;;;;;3.28;55.12;100158.63;5011516;28;20073;-58
2022/03/01 09:32:57;;;;;;;10.43;5.43;;;;;;;3.33;55.25;100158.00;5006265;28;20050;-55
2022/03/01 09:35:23;;;;;;;10.00;5.60;;;;;;;3.38;54.01;100145.47;5012495;28;20042;-57
2022/03/01 09:37:49;;;;;;;10.60;5.27;;;;;;;3.51;53.91;100140.00;5008385;28;20459;-57
2022/03/01 09:40:15;;;;;;;8.57;4.70;;;;;;;3.43;53.29;100144.84;5003399;28;20549;-57
2022/03/01 09:42:42;;;;;;;8.90;4.23;;;;;;;3.51;53.40;100135.81;5006372;28;20483;-56
2022/03/01 09:45:10;;;;;;;7.10;4.93;;;;;;;3.52;52.76;100134.13;5006377;28;20060;-57
2022/03/01 09:47:37;;;;;;;9.73;4.20;;;;;;;3.57;52.68;100133.47;5014659;28;20069;-56
2022/03/01 09:50:04;;;;;;;7.47;5.10;;;;;;;3.56;52.52;100130.91;5013227;28;20444;-57
2022/03/01 09:52:30;;;;;;;7.17;4.30;;;;;;;3.49;51.80;100124.75;5015263;28;20100;-55
2022/03/01 09:54:55;;;;;;;8.33;5.13;;;;;;;3.81;52.00;100132.53;5018679;28;20115;-58
2022/03/01 09:57:21;;;;;;;10.50;5.33;;;;;;;3.66;51.06;100128.69;5015777;28;20061;-59
2022/03/01 09:59:46;;;;;;;7.43;4.50;;;;;;;3.88;51.14;100124.31;5016081;28;20038;-61
2022/03/01 10:02:12;;;;;;;6.83;5.70;;;;;;;4.00;50.12;100123.00;5015047;28;20034;-60
2022/03/01 10:04:52;;;;;;;10.57;4.50;;;;;;;3.62;50.92;100115.88;5015383;28;20202;-57
2022/03/01 10:07:26;;;;;;;6.93;5.07;;;;;;;3.58;52.00;100116.56;5015337;28;20080;-57
2022/03/01 10:09:52;;;;;;;7.33;4.87;;;;;;;3.76;51.19;100118.84;5015304;28;20429;-58
2022/03/01 10:12:28;;;;;;;10.13;5.47;;;;;;;3.86;51.65;100114.09;5014757;28;20065;-58
2022/03/01 10:15:04;;;;;;;5.70;4.00;;;;;;;3.83;50.87;100115.69;5014274;28;20136;-59
2022/03/01 10:17:43;;;;;;;7.20;5.00;;;;;;;4.02;50.58;100107.84;5015209;28;20050;-59
2022/03/01 10:20:14;;;;;;;10.30;4.47;;;;;;;4.07;50.63;100107.16;5015331;28;20278;-57
2022/03/01 10:22:44;;;;;;;7.83;5.43;;;;;;;4.13;50.51;100112.44;5015367;28;20058;-57
2022/03/01 10:25:12;;;;;;;6.97;4.80;;;;;;;4.10;50.60;100112.34;5015918;28;20066;-59
2022/03/01 10:27:37;;;;;;;7.60;5.47;;;;;;;4.18;50.21;100104.09;5016458;28;20038;-59
2022/03/01 10:30:04;;;;;;;7.33;5.50;;;;;;;4.35;51.31;100101.25;5015868;28;20135;-59
2022/03/01 10:32:32;;;;;;;8.13;5.43;;;;;;;4.37;50.44;100099.59;5015132;28;20060;-60
2022/03/01 10:35:01;;;;;;;8.50;5.37;;;;;;;4.56;49.10;100109.47;5014276;28;20038;-55
2022/03/01 10:37:29;;;;;;;7.10;5.53;;;;;;;4.42;49.07;100097.19;5014246;28;20115;-60
2022/03/01 10:40:22;;;;;;;8.50;5.57;;;;;;;4.43;49.62;100089.63;5016265;28;20088;-57
2022/03/01 10:43:09;;;;;;;9.03;5.73;;;;;;;4.60;49.29;100085.88;5012460;28;20045;-59
2022/03/01 10:45:45;;;;;;;8.60;5.10;;;;;;;4.72;49.04;100092.13;5015865;28;20060;-57
2022/03/01 10:48:22;;;;;;;8.43;5.67;;;;;;;4.72;48.59;100084.50;5015166;28;20042;-57
2022/03/01 10:51:02;;;;;;;6.80;5.00;;;;;;;4.77;48.17;100090.56;5013310;28;20030;-56
2022/03/01 10:53:39;;;;;;;6.33;4.50;;;;;;;4.76;47.65;100086.31;5013701;28;20348;-58
2022/03/01 10:56:07;;;;;;;9.20;4.87;;;;;;;4.84;47.36;100080.59;5014154;28;20038;-58
2022/03/01 10:58:35;;;;;;;6.77;4.63;;;;;;;4.89;47.46;100089.22;5014446;28;20057;-59
2022/03/01 11:01:00;;;;;;;10.80;6.47;;;;;;;4.82;47.55;100072.09;5013541;28;20064;-59
2022/03/01 11:03:26;;;;;;;8.73;4.63;;;;;;;4.77;47.39;100078.72;5013595;28;20045;-57
2022/03/01 11:05:54;;;;;;;8.30;4.87;;;;;;;4.67;46.69;100078.44;5013425;28;20045;-57
2022/03/01 11:08:29;;;;;;;10.90;7.53;;;;;;;4.72;47.19;100071.78;5013931;28;20076;-58
2022/03/01 11:10:55;;;;;;;12.20;5.68;;;;;;;4.91;48.44;100074.03;5013753;28;20070;-55